createdAt,value
2022-10-26T00:01:14.664Z,9.80
2022-10-26T00:03:43.457Z,9.80
2022-10-26T00:06:19.552Z,9.90
2022-10-26T00:08:47.660Z,9.90
2022-10-26T00:11:15.412Z,9.90
2022-10-26T00:13:42.697Z,9.90
2022-10-26T00:16:15.344Z,9.90
2022-10-26T00:18:43.025Z,9.90
2022-10-26T00:21:11.037Z,10.00
2022-10-26T00:23:38.600Z,10.00
2022-10-26T00:26:06.415Z,10.00
2022-10-26T00:28:33.517Z,10.10
2022-10-26T00:31:02.104Z,10.10
2022-10-26T00:33:30.275Z,10.20
2022-10-26T00:35:57.270Z,10.20
2022-10-26T00:38:24.428Z,10.20
2022-10-26T00:40:51.707Z,10.30
2022-10-26T00:43:21.683Z,10.30
2022-10-26T00:45:50.957Z,10.30
2022-10-26T00:48:25.238Z,10.30
2022-10-26T00:50:54.307Z,10.30
2022-10-26T00:53:21.453Z,10.30
2022-10-26T00:55:51.443Z,10.30
2022-10-26T00:58:19.519Z,10.30
2022-10-26T01:00:48.195Z,10.30
2022-10-26T01:03:16.386Z,10.30
2022-10-26T01:05:45.876Z,10.30
2022-10-26T01:08:14.160Z,10.30
2022-10-26T01:10:43.088Z,10.40
2022-10-26T01:13:10.859Z,10.40
2022-10-26T01:15:51.541Z,10.30
2022-10-26T01:19:06.547Z,10.30
2022-10-26T01:21:37.366Z,10.30
2022-10-26T01:24:07.995Z,10.30
2022-10-26T01:26:49.708Z,10.30
2022-10-26T01:29:19.717Z,10.30
2022-10-26T01:32:01.207Z,10.30
2022-10-26T01:35:06.578Z,10.30
2022-10-26T01:37:39.150Z,10.30
2022-10-26T01:40:44.751Z,10.30
2022-10-26T01:43:15.642Z,10.30
2022-10-26T01:45:46.363Z,10.30
2022-10-26T01:48:17.812Z,10.30
2022-10-26T01:50:47.359Z,10.30
2022-10-26T01:53:16.220Z,10.30
2022-10-26T01:55:51.789Z,10.30
2022-10-26T01:58:39.754Z,10.30
2022-10-26T02:01:12.204Z,10.40
2022-10-26T02:03:44.950Z,10.40
2022-10-26T02:06:30.753Z,10.40
2022-10-26T02:09:14.979Z,10.40
2022-10-26T02:11:46.801Z,10.40
2022-10-26T02:14:17.510Z,10.50
2022-10-26T02:16:56.361Z,10.50
2022-10-26T02:19:44.710Z,10.50
2022-10-26T02:22:32.442Z,10.50
2022-10-26T02:25:04.599Z,10.50
2022-10-26T02:27:35.449Z,10.50
2022-10-26T02:30:04.952Z,10.60
2022-10-26T02:32:36.448Z,10.60
2022-10-26T02:35:05.368Z,10.70
2022-10-26T02:37:34.466Z,10.70
2022-10-26T02:40:06.790Z,10.70
2022-10-26T02:42:34.681Z,10.70
2022-10-26T02:45:07.914Z,10.70
2022-10-26T02:47:35.071Z,10.80
2022-10-26T02:50:02.633Z,10.80
2022-10-26T02:52:35.779Z,10.80
2022-10-26T02:55:11.449Z,10.80
2022-10-26T02:57:44.770Z,10.80
2022-10-26T03:00:18.315Z,10.80
2022-10-26T03:02:51.587Z,10.80
2022-10-26T03:05:23.249Z,10.80
2022-10-26T03:07:50.143Z,10.80
2022-10-26T03:10:17.262Z,10.80
2022-10-26T03:12:44.294Z,10.80
2022-10-26T03:15:11.469Z,10.80
2022-10-26T03:17:38.590Z,10.80
2022-10-26T03:20:06.038Z,10.90
2022-10-26T03:22:32.987Z,10.80
2022-10-26T03:24:59.935Z,10.80
2022-10-26T03:27:27.305Z,10.90
2022-10-26T03:29:54.424Z,10.90
2022-10-26T03:32:21.269Z,10.90
2022-10-26T03:34:48.107Z,10.90
2022-10-26T03:37:14.940Z,10.90
2022-10-26T03:39:41.816Z,10.90
2022-10-26T03:42:08.669Z,10.90
2022-10-26T03:44:35.523Z,11.00
2022-10-26T03:47:02.376Z,11.00
2022-10-26T03:49:29.259Z,11.00
2022-10-26T03:51:56.107Z,11.00
2022-10-26T03:54:22.943Z,11.00
2022-10-26T03:56:52.670Z,11.00
2022-10-26T03:59:22.033Z,11.00
2022-10-26T04:01:51.629Z,11.00
2022-10-26T04:04:21.247Z,11.10
2022-10-26T04:06:48.212Z,11.00
2022-10-26T04:09:15.076Z,11.10
2022-10-26T04:11:41.949Z,11.10
2022-10-26T04:14:08.829Z,11.10
2022-10-26T04:16:35.754Z,11.10
2022-10-26T04:19:02.652Z,11.10
2022-10-26T04:21:29.907Z,11.10
2022-10-26T04:23:56.768Z,11.10
2022-10-26T04:26:23.678Z,11.10
2022-10-26T04:28:50.545Z,11.10
2022-10-26T04:31:17.457Z,11.10
2022-10-26T04:33:44.346Z,11.10
2022-10-26T04:36:11.214Z,11.10
2022-10-26T04:38:38.074Z,11.10
2022-10-26T04:41:05.104Z,11.20
2022-10-26T04:43:31.966Z,11.20
2022-10-26T04:45:59.090Z,11.20
2022-10-26T04:51:01.520Z,11.20
2022-10-26T04:53:28.769Z,11.20
2022-10-26T04:55:59.837Z,11.20
2022-10-26T04:58:27.905Z,11.30
2022-10-26T05:00:55.256Z,11.20
2022-10-26T05:03:22.304Z,11.20
2022-10-26T05:05:49.240Z,11.20
2022-10-26T05:08:16.711Z,11.20
2022-10-26T05:10:43.648Z,11.20
2022-10-26T05:13:11.165Z,11.20
2022-10-26T05:15:38.021Z,11.30
2022-10-26T05:18:09.905Z,11.30
2022-10-26T05:20:46.454Z,11.30
2022-10-26T05:23:18.419Z,11.30
2022-10-26T05:25:46.099Z,11.30
2022-10-26T05:28:14.354Z,11.30
2022-10-26T05:30:42.488Z,11.30
2022-10-26T05:33:11.387Z,11.30
2022-10-26T05:35:38.552Z,11.40
2022-10-26T05:38:15.342Z,11.40
2022-10-26T05:40:49.765Z,11.40
2022-10-26T05:43:17.041Z,11.40
2022-10-26T05:45:44.057Z,11.40
2022-10-26T05:48:11.157Z,11.40
2022-10-26T05:50:38.085Z,11.40
2022-10-26T05:53:04.976Z,11.40
2022-10-26T05:55:32.324Z,11.40
2022-10-26T05:57:59.508Z,11.40
2022-10-26T06:00:28.625Z,11.40
2022-10-26T06:03:17.380Z,11.40
2022-10-26T06:05:58.884Z,11.40
2022-10-26T06:08:28.781Z,11.40
2022-10-26T06:10:59.428Z,11.50
2022-10-26T06:13:26.773Z,11.50
2022-10-26T06:16:11.471Z,11.50
2022-10-26T06:19:13.350Z,11.50
2022-10-26T06:22:02.473Z,11.60
2022-10-26T06:24:35.546Z,11.60
2022-10-26T06:27:22.756Z,11.70
2022-10-26T06:30:03.816Z,11.80
2022-10-26T06:32:30.730Z,11.90
2022-10-26T06:35:14.605Z,12.00
2022-10-26T06:37:44.395Z,12.10
2022-10-26T06:40:14.666Z,12.10
2022-10-26T06:42:41.946Z,12.20
2022-10-26T06:48:09.127Z,12.20
2022-10-26T06:50:35.853Z,12.20
2022-10-26T06:53:31.181Z,12.20
2022-10-26T06:55:59.582Z,12.20
2022-10-26T06:58:30.375Z,12.20
2022-10-26T07:00:58.360Z,12.10
2022-10-26T07:03:25.314Z,12.10
2022-10-26T07:05:52.418Z,12.00
2022-10-26T07:08:19.394Z,12.00
2022-10-26T07:10:47.411Z,12.00
2022-10-26T07:13:14.304Z,11.90
2022-10-26T07:15:42.952Z,11.90
2022-10-26T07:18:10.415Z,11.90
2022-10-26T07:20:39.626Z,11.80
2022-10-26T07:23:07.753Z,11.80
2022-10-26T07:25:35.822Z,11.80
2022-10-26T07:28:02.778Z,11.90
2022-10-26T07:30:31.201Z,11.90
2022-10-26T07:33:07.330Z,11.90
2022-10-26T07:35:34.637Z,11.90
2022-10-26T07:38:02.293Z,11.90
2022-10-26T07:40:29.466Z,12.00
2022-10-26T07:43:00.850Z,12.10
2022-10-26T07:45:29.088Z,12.20
2022-10-26T07:47:56.363Z,12.30
2022-10-26T07:50:23.937Z,12.30
2022-10-26T07:52:51.301Z,12.40
2022-10-26T07:55:19.290Z,12.50
2022-10-26T07:57:48.565Z,12.50
2022-10-26T08:00:20.831Z,12.50
2022-10-26T08:02:47.772Z,12.50
2022-10-26T08:05:14.707Z,12.60
2022-10-26T08:07:45.891Z,12.60
2022-10-26T08:10:14.354Z,12.60
2022-10-26T08:12:42.338Z,12.70
2022-10-26T08:15:10.299Z,12.80
2022-10-26T08:17:37.300Z,12.90
2022-10-26T08:20:04.717Z,13.00
2022-10-26T08:22:32.133Z,13.20
2022-10-26T08:24:58.980Z,13.30
2022-10-26T08:27:25.971Z,13.20
2022-10-26T08:29:52.838Z,13.10
2022-10-26T08:32:19.763Z,13.10
2022-10-26T08:34:46.631Z,13.00
2022-10-26T08:37:13.533Z,12.90
2022-10-26T08:39:40.429Z,12.90
2022-10-26T08:42:33.949Z,12.90
2022-10-26T08:45:11.333Z,12.90
2022-10-26T08:47:46.516Z,12.90
2022-10-26T08:50:17.397Z,12.90
2022-10-26T08:53:19.104Z,13.00
2022-10-26T08:55:51.264Z,13.10
2022-10-26T08:58:24.030Z,13.20
2022-10-26T09:00:51.574Z,13.30
2022-10-26T09:03:19.352Z,13.30
2022-10-26T09:05:46.159Z,13.40
2022-10-26T09:08:29.320Z,13.50
2022-10-26T09:11:32.869Z,13.70
2022-10-26T09:14:21.196Z,14.00
2022-10-26T09:16:59.668Z,14.20
2022-10-26T09:19:35.211Z,14.30
2022-10-26T09:22:15.765Z,14.40
2022-10-26T09:24:55.383Z,14.40
2022-10-26T09:27:25.279Z,14.20
2022-10-26T09:29:53.248Z,14.20
2022-10-26T09:32:35.086Z,14.10
2022-10-26T09:35:19.075Z,14.00
2022-10-26T09:37:57.324Z,13.90
2022-10-26T09:41:10.446Z,13.90
2022-10-26T09:44:20.887Z,13.80
2022-10-26T09:47:17.789Z,13.70
2022-10-26T09:49:50.838Z,13.70
2022-10-26T09:52:18.020Z,13.60
2022-10-26T09:54:45.353Z,13.50
2022-10-26T09:57:15.940Z,13.40
2022-10-26T09:59:43.696Z,13.30
2022-10-26T10:02:34.037Z,13.20
2022-10-26T10:05:01.404Z,13.10
2022-10-26T10:07:28.460Z,13.00
2022-10-26T10:10:18.178Z,13.00
2022-10-26T10:12:47.560Z,13.00
2022-10-26T10:15:20.952Z,13.00
2022-10-26T10:17:56.433Z,12.90
2022-10-26T10:20:32.150Z,12.90
2022-10-26T10:23:01.413Z,12.90
2022-10-26T10:25:58.373Z,12.90
2022-10-26T10:28:26.910Z,12.90
2022-10-26T10:31:01.829Z,12.90
2022-10-26T10:33:49.593Z,12.90
2022-10-26T10:36:22.309Z,13.00
2022-10-26T10:38:51.807Z,13.00
2022-10-26T10:41:24.865Z,13.10
2022-10-26T10:44:15.131Z,13.10
2022-10-26T10:46:42.287Z,13.10
2022-10-26T10:49:54.090Z,13.20
2022-10-26T10:52:26.313Z,13.20
2022-10-26T10:55:09.135Z,13.20
2022-10-26T10:57:54.583Z,13.30
2022-10-26T11:00:21.879Z,13.40
2022-10-26T11:03:03.726Z,13.40
2022-10-26T11:05:42.309Z,13.30
2022-10-26T11:08:15.935Z,13.40
2022-10-26T11:10:57.999Z,13.40
2022-10-26T11:13:30.225Z,13.40
2022-10-26T11:16:04.036Z,13.50
2022-10-26T11:18:36.463Z,13.50
2022-10-26T11:21:14.249Z,13.50
2022-10-26T11:24:11.448Z,13.50
2022-10-26T11:27:06.015Z,13.50
2022-10-26T11:29:38.336Z,13.50
2022-10-26T11:32:34.940Z,13.50
2022-10-26T11:35:13.569Z,13.50
2022-10-26T11:38:03.237Z,13.50
2022-10-26T11:40:54.915Z,13.50
2022-10-26T11:44:06.136Z,13.50
2022-10-26T11:46:36.437Z,13.40
2022-10-26T11:49:21.605Z,13.40
2022-10-26T11:52:12.352Z,13.40
2022-10-26T11:54:55.945Z,13.30
2022-10-26T11:57:25.284Z,13.30
2022-10-26T12:00:20.873Z,13.20
2022-10-26T12:03:15.232Z,13.20
2022-10-26T12:05:49.860Z,13.10
2022-10-26T12:08:27.965Z,13.00
2022-10-26T12:11:18.037Z,13.00
2022-10-26T12:14:13.395Z,13.00
2022-10-26T12:17:05.139Z,13.00
2022-10-26T12:19:59.808Z,13.00
2022-10-26T12:22:32.547Z,13.00
2022-10-26T12:25:20.208Z,13.00
2022-10-26T12:30:24.940Z,13.00
2022-10-26T12:32:54.961Z,13.10
2022-10-26T12:35:40.247Z,13.10
2022-10-26T12:38:27.924Z,13.20
2022-10-26T12:41:08.908Z,13.20
2022-10-26T12:43:40.406Z,13.30
2022-10-26T12:46:13.382Z,13.30
2022-10-26T12:48:44.562Z,13.20
2022-10-26T12:51:24.789Z,13.10
2022-10-26T12:53:57.315Z,13.00
2022-10-26T12:56:37.432Z,12.90
2022-10-26T12:59:09.987Z,12.90
2022-10-26T13:04:22.019Z,12.80
2022-10-26T13:06:59.253Z,12.70
2022-10-26T13:09:33.246Z,12.70
2022-10-26T13:12:03.239Z,12.70
2022-10-26T13:14:57.767Z,12.70
2022-10-26T13:17:28.032Z,12.80
2022-10-26T13:19:57.674Z,12.90
2022-10-26T13:22:25.362Z,12.90
2022-10-26T13:25:04.907Z,12.90
2022-10-26T13:27:34.578Z,13.00
2022-10-26T13:30:04.547Z,13.00
2022-10-26T13:32:39.055Z,13.00
2022-10-26T13:35:12.003Z,12.90
2022-10-26T13:37:46.382Z,12.90
2022-10-26T13:40:18.878Z,12.90
2022-10-26T13:42:52.680Z,12.80
2022-10-26T13:45:32.049Z,12.70
2022-10-26T13:48:06.373Z,12.70
2022-10-26T13:54:11.825Z,12.60
2022-10-26T13:56:48.184Z,12.60
2022-10-26T13:59:16.056Z,12.60
2022-10-26T14:01:43.095Z,12.50
2022-10-26T14:04:18.367Z,12.50
2022-10-26T14:06:50.412Z,12.50
2022-10-26T14:09:18.452Z,12.40
2022-10-26T14:11:53.288Z,12.40
2022-10-26T14:14:26.797Z,12.40
2022-10-26T14:16:54.372Z,12.30
2022-10-26T14:19:30.400Z,12.30
2022-10-26T14:21:58.521Z,12.40
2022-10-26T14:24:46.258Z,12.30
2022-10-26T14:27:18.940Z,12.30
2022-10-26T14:29:58.359Z,12.30
2022-10-26T14:32:33.907Z,12.30
2022-10-26T14:35:00.951Z,12.30
2022-10-26T14:37:37.204Z,12.30
2022-10-26T14:40:05.749Z,12.30
2022-10-26T14:42:38.455Z,12.30
2022-10-26T14:45:06.380Z,12.20
2022-10-26T14:47:36.450Z,12.20
2022-10-26T14:50:03.600Z,12.20
2022-10-26T14:52:36.530Z,12.20
2022-10-26T14:55:23.937Z,12.10
2022-10-26T14:57:54.155Z,12.10
2022-10-26T15:00:23.996Z,12.00
2022-10-26T15:02:56.451Z,12.00
2022-10-26T15:05:35.665Z,12.00
2022-10-26T15:08:03.424Z,12.00
2022-10-26T15:10:36.561Z,11.90
2022-10-26T15:13:29.609Z,11.90
2022-10-26T15:16:07.866Z,11.90
2022-10-26T15:18:37.166Z,11.90
2022-10-26T15:21:16.825Z,11.90
2022-10-26T15:23:43.733Z,11.90
2022-10-26T15:26:12.180Z,11.90
2022-10-26T15:28:43.400Z,11.90
2022-10-26T15:31:10.212Z,11.90
2022-10-26T15:33:42.132Z,11.80
2022-10-26T15:36:08.964Z,11.80
2022-10-26T15:38:36.053Z,11.80
2022-10-26T15:41:14.555Z,11.80
2022-10-26T15:43:41.588Z,11.80
2022-10-26T15:46:08.525Z,11.80
2022-10-26T15:48:36.246Z,11.80
2022-10-26T15:51:03.180Z,11.70
2022-10-26T15:53:30.816Z,11.70
2022-10-26T15:55:59.943Z,11.60
2022-10-26T15:58:29.130Z,11.60
2022-10-26T16:00:56.023Z,11.60
2022-10-26T16:03:24.882Z,11.50
2022-10-26T16:05:57.788Z,11.50
2022-10-26T16:08:26.911Z,11.40
2022-10-26T16:10:53.812Z,11.40
2022-10-26T16:13:20.779Z,11.40
2022-10-26T16:15:47.896Z,11.40
2022-10-26T16:18:15.235Z,11.30
2022-10-26T16:20:45.006Z,11.30
2022-10-26T16:23:11.864Z,11.30
2022-10-26T16:25:46.447Z,11.30
2022-10-26T16:28:16.357Z,11.30
2022-10-26T16:30:43.694Z,11.20
2022-10-26T16:33:10.564Z,11.20
2022-10-26T16:35:37.441Z,11.20
2022-10-26T16:38:04.349Z,11.20
2022-10-26T16:40:31.943Z,11.20
2022-10-26T16:42:58.778Z,11.20
2022-10-26T16:45:25.665Z,11.20
2022-10-26T16:47:52.864Z,11.20
2022-10-26T16:50:22.158Z,11.10
2022-10-26T16:52:49.051Z,11.20
2022-10-26T16:55:16.896Z,11.20
2022-10-26T16:57:43.787Z,11.20
2022-10-26T17:00:11.028Z,11.10
2022-10-26T17:02:37.983Z,11.20
2022-10-26T17:05:07.279Z,11.20
2022-10-26T17:07:35.005Z,11.10
2022-10-26T17:10:01.925Z,11.10
2022-10-26T17:12:28.788Z,11.20
2022-10-26T17:14:58.575Z,11.20
2022-10-26T17:17:25.468Z,11.20
2022-10-26T17:19:52.359Z,11.10
2022-10-26T17:22:19.311Z,11.10
2022-10-26T17:27:23.112Z,11.20
2022-10-26T17:29:49.988Z,11.10
2022-10-26T17:32:16.879Z,11.10
2022-10-26T17:34:43.713Z,11.10
2022-10-26T17:37:10.593Z,11.10
2022-10-26T17:39:37.452Z,11.10
2022-10-26T17:42:04.328Z,11.10
2022-10-26T17:44:31.153Z,11.10
2022-10-26T17:46:58.049Z,11.10
2022-10-26T17:49:26.896Z,11.00
2022-10-26T17:51:56.179Z,11.10
2022-10-26T17:54:23.082Z,11.10
2022-10-26T17:56:49.927Z,11.10
2022-10-26T17:59:19.201Z,11.10
2022-10-26T18:01:46.162Z,11.10
2022-10-26T18:04:13.085Z,11.10
2022-10-26T18:06:39.975Z,11.10
2022-10-26T18:09:06.806Z,11.10
2022-10-26T18:11:33.700Z,11.10
2022-10-26T18:14:00.569Z,11.10
2022-10-26T18:16:28.480Z,11.10
2022-10-26T18:19:01.469Z,11.10
2022-10-26T18:21:30.834Z,11.00
2022-10-26T18:23:57.767Z,11.10
2022-10-26T18:26:28.516Z,11.10
2022-10-26T18:28:56.517Z,11.10
2022-10-26T18:31:24.604Z,11.10
2022-10-26T18:33:56.505Z,11.10
2022-10-26T18:36:23.672Z,11.10
2022-10-26T18:38:50.636Z,11.10
2022-10-26T18:41:19.798Z,11.10
2022-10-26T18:43:51.996Z,11.10
2022-10-26T18:46:25.121Z,11.10
2022-10-26T18:48:52.361Z,11.10
2022-10-26T18:51:29.011Z,11.10
2022-10-26T18:53:57.495Z,11.10
2022-10-26T18:56:25.081Z,11.10
2022-10-26T18:58:55.549Z,11.10
2022-10-26T19:01:30.929Z,11.10
2022-10-26T19:04:05.594Z,11.10
2022-10-26T19:06:37.793Z,11.10
2022-10-26T19:09:06.338Z,11.00
2022-10-26T19:11:34.167Z,11.00
2022-10-26T19:14:01.223Z,11.00
2022-10-26T19:16:48.213Z,11.00
2022-10-26T19:19:16.759Z,11.00
2022-10-26T19:21:45.212Z,11.10
2022-10-26T19:24:18.886Z,11.10
2022-10-26T19:26:46.961Z,11.00
2022-10-26T19:29:16.153Z,11.00
2022-10-26T19:31:45.373Z,11.00
2022-10-26T19:34:13.799Z,11.00
2022-10-26T19:36:44.865Z,11.00
2022-10-26T19:39:15.830Z,11.10
2022-10-26T19:41:43.515Z,11.10
2022-10-26T19:44:11.422Z,11.00
2022-10-26T19:46:39.630Z,11.00
2022-10-26T19:49:15.598Z,11.00
2022-10-26T19:51:42.547Z,11.00
2022-10-26T19:54:09.567Z,11.00
2022-10-26T19:56:37.547Z,11.00
2022-10-26T19:59:05.386Z,11.00
2022-10-26T20:01:32.395Z,11.00
2022-10-26T20:04:02.335Z,11.00
2022-10-26T20:06:30.683Z,11.00
2022-10-26T20:08:57.862Z,11.00
2022-10-26T20:11:24.779Z,10.90
2022-10-26T20:13:51.687Z,11.00
2022-10-26T20:16:18.597Z,10.90
2022-10-26T20:18:48.103Z,10.90
2022-10-26T20:21:17.164Z,10.90
2022-10-26T20:23:44.759Z,10.90
2022-10-26T20:26:18.682Z,10.90
2022-10-26T20:28:48.299Z,10.90
2022-10-26T20:31:15.455Z,10.90
2022-10-26T20:33:42.663Z,10.90
2022-10-26T20:36:09.599Z,10.90
2022-10-26T20:38:36.859Z,11.00
2022-10-26T20:41:07.730Z,10.90
2022-10-26T20:43:39.735Z,10.90
2022-10-26T20:46:22.480Z,10.90
2022-10-26T20:49:05.116Z,10.90
2022-10-26T20:51:44.542Z,10.90
2022-10-26T20:54:28.643Z,10.90
2022-10-26T20:57:00.241Z,10.90
2022-10-26T20:59:38.994Z,10.90
2022-10-26T21:02:12.097Z,10.90
2022-10-26T21:04:39.011Z,10.80
2022-10-26T21:07:05.873Z,10.80
2022-10-26T21:09:35.733Z,10.90
2022-10-26T21:12:03.883Z,10.90
2022-10-26T21:14:30.840Z,10.90
2022-10-26T21:16:57.727Z,10.80
2022-10-26T21:19:24.686Z,10.90
2022-10-26T21:21:51.547Z,10.80
2022-10-26T21:24:18.392Z,10.90
2022-10-26T21:26:45.430Z,10.90
2022-10-26T21:29:12.413Z,10.90
2022-10-26T21:31:39.283Z,10.90
2022-10-26T21:34:06.261Z,10.90
2022-10-26T21:36:33.368Z,10.90
2022-10-26T21:39:00.254Z,10.80
2022-10-26T21:41:27.254Z,10.80
2022-10-26T21:44:03.459Z,10.80
2022-10-26T21:46:37.989Z,10.90
2022-10-26T21:49:05.344Z,10.90
2022-10-26T21:51:32.466Z,10.90
2022-10-26T21:53:59.313Z,10.90
2022-10-26T21:56:26.229Z,10.90
2022-10-26T21:58:53.093Z,10.90
2022-10-26T22:01:22.032Z,10.90
2022-10-26T22:03:49.610Z,10.80
2022-10-26T22:06:36.897Z,10.80
2022-10-26T22:09:04.414Z,10.80
2022-10-26T22:11:31.816Z,10.80
2022-10-26T22:13:58.778Z,10.80
2022-10-26T22:16:29.112Z,10.80
2022-10-26T22:18:58.774Z,10.80
2022-10-26T22:21:27.581Z,10.70
2022-10-26T22:23:55.174Z,10.70
2022-10-26T22:26:24.852Z,10.80
2022-10-26T22:28:54.709Z,10.70
2022-10-26T22:31:27.817Z,10.80
2022-10-26T22:34:02.007Z,10.70
2022-10-26T22:36:32.637Z,10.70
2022-10-26T22:38:59.618Z,10.70
2022-10-26T22:41:26.559Z,10.70
2022-10-26T22:43:53.446Z,10.70
2022-10-26T22:46:23.317Z,10.70
2022-10-26T22:51:35.770Z,10.70
2022-10-26T22:54:04.596Z,10.70
2022-10-26T22:56:33.314Z,10.70
2022-10-26T22:59:00.615Z,10.70
2022-10-26T23:01:33.691Z,10.70
2022-10-26T23:04:00.685Z,10.60
2022-10-26T23:06:30.144Z,10.60
2022-10-26T23:08:57.079Z,10.60
2022-10-26T23:11:27.008Z,10.60
2022-10-26T23:14:01.568Z,10.60
2022-10-26T23:16:29.579Z,10.60
2022-10-26T23:18:57.637Z,10.60
2022-10-26T23:23:57.288Z,10.50
2022-10-26T23:26:24.824Z,10.50
2022-10-26T23:28:51.697Z,10.50
2022-10-26T23:31:26.819Z,10.50
2022-10-26T23:33:55.925Z,10.40
2022-10-26T23:36:23.363Z,10.40
2022-10-26T23:38:50.399Z,10.50
2022-10-26T23:41:17.403Z,10.50
2022-10-26T23:43:44.262Z,10.40
2022-10-26T23:46:11.449Z,10.50
2022-10-26T23:48:38.505Z,10.50
2022-10-26T23:51:06.539Z,10.50
2022-10-26T23:53:33.427Z,10.40
2022-10-26T23:56:00.407Z,10.40
2022-10-26T23:58:27.311Z,10.40
